Aviation Digital Data Service (ADDS)

Output produced by METARs form (0840 UTC 01 October 2016)
found at http://aviationweather.gov/adds/metars/
 
KLEB 010531Z 0106/0206 VRB03KT P6SM -SHRA BKN040 OVC060 
     FM010900 VRB03KT 6SM -SHRA BR BKN025 OVC040 
     FM012100 VRB03KT P6SM OVC040